Newark, DE

11:11 PM EDT on April 01, 2015 (GMT -0400)
DEDOT | | Change Station
CLOSE
Current Station
Personal Weather Station
Location: Glasgow, DE
Elevation: 71 ft
Nearby Weather Stations

Elev 71 ft 39.61 °N, 75.74 °W | Updated 44 minutes ago

Clear
Clear
41 °F
Feels Like 41 °F
N
0
Wind Variable Wind from NE
Gusts 2.0 mph

Today
High -- | Low -- °F
--% Chance of Precip.
Yesterday
High -- | Low -- °F
Precip. -- in
6:47 AM 7:26 PM
Waxing Gibbous, 95% visible
Pressure 30.24 in
Visibility 10.0 miles
Clouds Clear
Windchill 41 °F
Dew Point 27 °F
Humidity 57%
Rainfall in
Snow Depth Not available.
UV 0 out of 12
Pollen 8.50 out of 12
Air Quality Not available.
Flu Activity Not available.
METAR KILG 020251Z 00000KT 10SM CLR 07/M04 A3024 RMK AO2 SLP239 T00671044 51017

More Conditions Fewer Conditions

Pressure 30.24 in
Visibility 10.0 miles
Clouds Clear
Windchill 41 °F
Dew Point 27 °F
Humidity 57%
Rainfall in
Snow Depth Not available.
UV 0 out of 12
Pollen 8.50 out of 12
Air Quality Not available.
Flu Activity Not available.
METAR KILG 020251Z 00000KT 10SM CLR 07/M04 A3024 RMK AO2 SLP239 T00671044 51017

More Conditions Fewer Conditions

10-Day Weather Forecast

Almanac

Astronomy

Apr. 01, 2015 Rise Set
Actual Time
Civil Twilight
Nautical Twilight
Astronomical Twilight
Moon
Length of Visible Light
Length of Day
Tomorrow will be .
, % of the Moon is Illuminated

Today's Extremes

State Highs State Lows

Community

WunderPhotos

Upload Photos

1,810,179 photos uploaded!

WunderBlogs® & News

Nearby

Air Quality

  Air Quality AQ Index Pollutant
Not available.

Snow Depth

Station Depth Elevation

Earthquake Activity

City Distance Mag. Time & Date
Minimum magnitude displayed is 2.5.

Coastal Water Temperatures

Place Temperature

Stations

Nearby Weather Stations

Station Location Temp. Windchill Dew Point Humidity Wind Precip. Elev Updated Type